Time;durP1;ratioP1;P1;durP2;ratioP2;P2;SDS_P1;SDS_P2;PMS_P1;PMS_P2;Temp;Humidity;BMP_temperature;BMP_pressure;BME280_temperature;BME280_humidity;BME280_pressure;Samples;Min_cycle;Max_cycle;Signal;HPM_P1;HPM_P2
2023/01/21 00:00:54;;;;;;;8.05;4.72;;;;;;;17.07;51.14;100043.66;4993726;28;20038;-76
2023/01/21 00:03:19;;;;;;;7.30;4.80;;;;;;;17.05;51.48;100045.50;4978663;28;20027;-76
2023/01/21 00:05:45;;;;;;;7.35;4.32;;;;;;;17.07;51.52;100045.41;4974479;28;20023;-76
2023/01/21 00:08:10;;;;;;;8.93;5.13;;;;;;;17.04;51.23;100046.38;4974290;28;20416;-76
2023/01/21 00:10:36;;;;;;;9.13;5.00;;;;;;;17.03;51.42;100044.66;4974231;28;20027;-76
2023/01/21 00:13:01;;;;;;;7.00;4.88;;;;;;;17.04;51.36;100038.47;4986130;28;20030;-76
2023/01/21 00:15:26;;;;;;;8.05;5.35;;;;;;;17.00;51.33;100029.78;4993559;28;20022;-76
2023/01/21 00:17:52;;;;;;;6.93;4.45;;;;;;;17.01;51.35;100035.94;4993360;28;20448;-76
2023/01/21 00:20:18;;;;;;;7.93;4.75;;;;;;;17.03;51.27;100031.50;4992193;28;20473;-76
2023/01/21 00:22:43;;;;;;;6.85;4.32;;;;;;;17.03;51.57;100034.13;4993630;28;20030;-76
2023/01/21 00:25:09;;;;;;;6.57;4.38;;;;;;;17.02;51.31;100037.66;4993655;28;20089;-76
2023/01/21 00:27:34;;;;;;;8.65;4.75;;;;;;;17.02;51.52;100033.28;4993363;28;20045;-76
2023/01/21 00:30:00;;;;;;;6.85;4.63;;;;;;;17.01;51.21;100035.94;4993822;28;20054;-76
2023/01/21 00:32:25;;;;;;;6.78;4.57;;;;;;;17.00;51.54;100028.94;4989751;28;20035;-77
2023/01/21 00:34:50;;;;;;;7.40;4.55;;;;;;;17.01;51.51;100035.94;4979439;28;20042;-76
2023/01/21 00:37:16;;;;;;;7.15;4.55;;;;;;;17.01;51.39;100035.94;4980364;28;20042;-78
2023/01/21 00:39:41;;;;;;;7.38;4.95;;;;;;;17.01;51.47;100035.94;4981188;28;20039;-77
2023/01/21 00:42:09;;;;;;;7.60;4.65;;;;;;;16.99;51.39;100029.84;4999664;28;20030;-77
2023/01/21 00:44:36;;;;;;;6.15;4.30;;;;;;;16.99;51.27;100027.19;4998389;28;20031;-76
2023/01/21 00:47:01;;;;;;;8.45;4.55;;;;;;;16.97;51.34;100031.69;4994125;28;20491;-76
2023/01/21 00:49:26;;;;;;;7.35;4.63;;;;;;;16.97;51.57;100029.91;4998021;28;20054;-76
2023/01/21 00:51:52;;;;;;;5.93;4.05;;;;;;;16.96;51.48;100029.97;4995628;28;20038;-77
2023/01/21 00:54:17;;;;;;;6.47;4.70;;;;;;;16.97;51.41;100034.31;4998513;28;20448;-76
2023/01/21 00:56:43;;;;;;;7.00;4.13;;;;;;;16.96;51.58;100020.28;4997585;28;20499;-76
2023/01/21 00:59:08;;;;;;;6.60;4.40;;;;;;;16.98;51.30;100025.47;4996992;28;20046;-76
2023/01/21 01:01:36;;;;;;;6.68;4.20;;;;;;;16.95;51.47;100015.06;4996747;28;20030;-76
2023/01/21 01:04:02;;;;;;;6.15;4.03;;;;;;;16.95;51.33;100015.06;4977522;28;20033;-76
2023/01/21 01:06:27;;;;;;;7.75;4.95;;;;;;;16.98;51.51;100020.22;4976399;28;20034;-76
2023/01/21 01:08:56;;;;;;;7.38;4.70;;;;;;;16.92;51.11;100011.59;4977477;28;20030;-76
2023/01/21 01:11:24;;;;;;;6.03;4.00;;;;;;;16.93;51.42;100007.19;4977656;28;20027;-76
2023/01/21 01:13:49;;;;;;;7.13;4.30;;;;;;;16.91;51.21;100007.25;4994653;28;20464;-76
2023/01/21 01:16:15;;;;;;;7.05;4.30;;;;;;;16.92;51.33;100001.06;4996664;28;20057;-76
2023/01/21 01:18:41;;;;;;;6.95;4.30;;;;;;;16.90;51.32;100005.53;4996484;28;20096;-76
2023/01/21 01:21:11;;;;;;;6.60;4.78;;;;;;;16.89;51.32;100003.81;4996696;28;20065;-76
2023/01/21 01:23:37;;;;;;;7.03;3.95;;;;;;;16.91;51.09;100006.41;4996474;28;20052;-76
2023/01/21 01:26:05;;;;;;;6.38;4.20;;;;;;;16.89;51.03;100006.44;4996618;28;20105;-75
2023/01/21 01:28:32;;;;;;;7.05;4.60;;;;;;;16.90;51.48;100007.28;4996556;28;20052;-76
2023/01/21 01:30:57;;;;;;;6.47;4.38;;;;;;;16.88;51.14;100004.72;4996005;28;20571;-76
2023/01/21 01:33:24;;;;;;;7.30;4.30;;;;;;;16.89;51.38;100005.56;4982452;28;20046;-76
2023/01/21 01:35:49;;;;;;;6.90;4.20;;;;;;;16.87;51.57;100013.56;4976814;28;20113;-76
2023/01/21 01:38:18;;;;;;;7.13;4.72;;;;;;;16.88;51.56;100012.63;4976776;28;20109;-76
2023/01/21 01:40:45;;;;;;;6.13;4.20;;;;;;;16.87;51.23;100007.41;4985913;28;20400;-75
2023/01/21 01:43:40;;;;;;;6.03;4.03;;;;;;;16.89;51.49;100005.56;4984230;28;20529;-76
2023/01/21 01:46:06;;;;;;;7.20;4.50;;;;;;;16.87;51.25;100007.41;4935632;29;20044;-76
2023/01/21 01:48:31;;;;;;;6.78;4.35;;;;;;;16.86;51.23;100006.53;4935901;29;20522;-76
2023/01/21 01:51:00;;;;;;;6.88;4.63;;;;;;;16.83;51.44;100006.66;4935841;29;20043;-75
2023/01/21 01:53:28;;;;;;;5.95;4.32;;;;;;;16.84;51.09;100007.50;4935923;29;20040;-76
2023/01/21 01:55:54;;;;;;;6.80;4.50;;;;;;;16.83;51.46;100004.03;4935785;28;20044;-76
2023/01/21 01:58:21;;;;;;;6.38;4.32;;;;;;;16.84;51.54;100003.09;4935720;29;20036;-75
2023/01/21 02:00:46;;;;;;;7.68;4.88;;;;;;;16.80;51.58;99998.84;4935346;29;20551;-76
2023/01/21 02:05:57;;;;;;;6.72;4.35;;;;;;;16.80;51.20;99995.38;4935970;29;20561;-76
2023/01/21 02:08:24;;;;;;;7.30;4.28;;;;;;;16.80;51.37;99990.94;4935981;29;20044;-76
2023/01/21 02:10:50;;;;;;;6.45;4.65;;;;;;;16.80;51.41;99990.94;4919558;29;20054;-76
2023/01/21 02:13:16;;;;;;;7.00;4.10;;;;;;;16.80;51.52;99985.66;4935277;29;20040;-76
2023/01/21 02:15:50;;;;;;;8.57;4.35;;;;;;;16.82;51.37;99996.16;4935464;29;20044;-76
2023/01/21 02:18:42;;;;;;;7.07;4.18;;;;;;;16.82;51.08;99977.72;4935238;29;20031;-76
2023/01/21 02:21:40;;;;;;;6.85;4.25;;;;;;;16.79;51.34;99978.69;4935529;29;20043;-76
2023/01/21 02:24:24;;;;;;;7.43;4.68;;;;;;;16.81;51.46;99976.00;4994422;28;20396;-76
2023/01/21 02:27:23;;;;;;;7.50;4.35;;;;;;;16.80;51.45;99979.56;4995499;28;20033;-77
2023/01/21 02:30:16;;;;;;;7.15;4.35;;;;;;;16.75;51.42;99988.47;4994987;28;20061;-76
2023/01/21 02:33:12;;;;;;;7.45;4.43;;;;;;;16.76;51.56;100000.72;4987881;28;20038;-76
2023/01/21 02:36:14;;;;;;;7.30;4.35;;;;;;;16.75;51.30;99988.47;4975711;28;20022;-76
2023/01/21 02:38:55;;;;;;;6.50;4.00;;;;;;;16.74;51.21;99985.88;4975438;28;20532;-76
2023/01/21 02:41:26;;;;;;;5.53;4.00;;;;;;;16.74;51.39;99993.78;4988309;28;20388;-76
2023/01/21 02:44:00;;;;;;;6.68;4.40;;;;;;;16.72;51.15;99990.34;4978133;28;20077;-76
2023/01/21 02:46:36;;;;;;;6.55;4.30;;;;;;;16.73;51.39;99987.69;4975306;28;20109;-76
2023/01/21 02:49:11;;;;;;;6.95;4.25;;;;;;;16.74;51.25;99991.16;4976096;28;20035;-76
2023/01/21 02:51:36;;;;;;;6.25;4.05;;;;;;;16.69;51.49;99993.09;4975503;28;20046;-76
2023/01/21 02:54:35;;;;;;;6.25;4.05;;;;;;;16.74;51.23;99980.63;4992967;28;20162;-76
2023/01/21 02:57:01;;;;;;;6.30;4.32;;;;;;;16.70;51.28;99969.31;4994206;28;20026;-76
2023/01/21 02:59:27;;;;;;;6.65;3.78;;;;;;;16.72;51.38;99977.19;4994518;28;20046;-76
2023/01/21 03:02:07;;;;;;;6.90;4.43;;;;;;;16.71;51.26;99975.47;4993268;28;20018;-76
2023/01/21 03:04:48;;;;;;;7.07;4.30;;;;;;;16.70;51.33;99974.59;4975256;28;20042;-76
2023/01/21 03:07:25;;;;;;;7.45;4.80;;;;;;;16.69;51.44;99961.47;4975072;28;20034;-76
2023/01/21 03:09:56;;;;;;;5.65;3.72;;;;;;;16.70;51.37;99964.06;4973892;28;20031;-76
2023/01/21 03:12:40;;;;;;;6.65;4.00;;;;;;;16.69;51.33;99964.09;4978394;28;20045;-77
2023/01/21 03:18:31;;;;;;;;;;;;;;;16.70;51.35;99977.22;4994720;28;20076;-76
2023/01/21 03:21:02;;;;;;;6.45;4.28;;;;;;;16.66;51.36;99987.94;4994251;28;19914;-75
2023/01/21 03:23:34;;;;;;;7.03;4.10;;;;;;;16.65;51.27;99989.69;4994177;28;20054;-76
2023/01/21 03:26:01;;;;;;;6.43;4.00;;;;;;;16.65;51.02;99994.97;4993881;28;20479;-76
2023/01/21 03:28:35;;;;;;;7.22;4.85;;;;;;;16.62;51.27;99993.31;4992913;28;20037;-77
2023/01/21 03:31:24;;;;;;;6.20;4.35;;;;;;;16.63;51.35;99983.63;4994547;28;20491;-77
2023/01/21 03:33:53;;;;;;;5.75;3.85;;;;;;;16.59;51.08;99977.63;4978846;28;20535;-76
2023/01/21 03:36:41;;;;;;;7.30;5.05;;;;;;;16.58;51.14;99970.63;4974327;28;20033;-76
2023/01/21 03:39:14;;;;;;;7.70;5.10;;;;;;;16.59;51.15;99967.06;4974355;28;20408;-75
2023/01/21 03:41:40;;;;;;;6.95;4.25;;;;;;;16.59;51.27;99967.06;4991036;28;20031;-77
2023/01/21 03:44:06;;;;;;;6.90;4.43;;;;;;;16.59;51.13;99961.81;4976602;28;20070;-76
2023/01/21 03:46:50;;;;;;;7.03;4.30;;;;;;;16.59;51.12;99955.66;4974398;28;20045;-76
2023/01/21 03:49:29;;;;;;;7.18;4.32;;;;;;;16.58;51.46;99954.81;4974465;28;20396;-76
2023/01/21 03:51:57;;;;;;;7.30;4.43;;;;;;;16.60;50.96;99952.97;4974334;28;20035;-76
2023/01/21 03:54:23;;;;;;;6.97;4.38;;;;;;;16.56;51.19;99956.63;4979411;28;20027;-76
2023/01/21 03:56:49;;;;;;;6.65;4.30;;;;;;;16.58;51.36;99954.81;4991056;28;20022;-76
2023/01/21 03:59:14;;;;;;;6.55;4.00;;;;;;;16.57;51.06;99955.69;4973797;28;20046;-77
2023/01/21 04:01:40;;;;;;;7.28;4.35;;;;;;;16.58;50.94;99951.31;4979294;28;20033;-77
2023/01/21 04:04:06;;;;;;;7.18;4.65;;;;;;;16.57;50.99;99950.44;4981151;28;20061;-76
2023/01/21 04:06:32;;;;;;;6.28;4.07;;;;;;;16.54;51.10;99942.66;4974154;28;20042;-75
2023/01/21 04:08:57;;;;;;;6.18;4.47;;;;;;;16.56;51.22;99940.81;4974074;28;20031;-76
2023/01/21 04:11:23;;;;;;;7.50;4.85;;;;;;;16.54;51.04;99940.03;4988283;28;20073;-75
2023/01/21 04:13:48;;;;;;;6.60;4.03;;;;;;;16.58;51.30;99936.38;4983412;28;20031;-76
2023/01/21 04:16:14;;;;;;;7.13;4.53;;;;;;;16.57;51.11;99946.97;4973868;28;20030;-75
2023/01/21 04:18:39;;;;;;;6.78;4.03;;;;;;;16.58;51.07;99939.00;4977991;28;20026;-76
2023/01/21 04:21:04;;;;;;;7.13;4.70;;;;;;;16.57;51.06;99936.41;4993286;28;20033;-76
2023/01/21 04:23:30;;;;;;;6.60;4.28;;;;;;;16.56;51.24;99938.19;4985674;28;20516;-75
2023/01/21 04:25:55;;;;;;;6.13;4.13;;;;;;;16.55;50.88;99939.09;4993213;28;20037;-75
2023/01/21 04:28:21;;;;;;;5.97;4.10;;;;;;;16.53;51.10;99940.94;4998469;28;20472;-76
2023/01/21 04:30:46;;;;;;;5.90;4.03;;;;;;;16.53;51.19;99938.31;4999915;28;20109;-76
2023/01/21 04:33:12;;;;;;;6.25;3.90;;;;;;;16.53;51.24;99935.66;4995237;28;20119;-75
2023/01/21 04:35:38;;;;;;;7.18;4.30;;;;;;;16.54;51.31;99942.66;4981739;28;20166;-76
2023/01/21 04:38:03;;;;;;;6.75;4.00;;;;;;;16.54;50.97;99942.66;4985091;28;20027;-76
2023/01/21 04:40:29;;;;;;;7.72;4.20;;;;;;;16.55;51.29;99944.38;4985713;28;20097;-77
2023/01/21 04:42:54;;;;;;;6.07;3.90;;;;;;;16.54;51.27;99942.66;4989327;28;20583;-76
2023/01/21 04:45:20;;;;;;;7.20;4.40;;;;;;;16.55;51.29;99940.91;5003038;28;20034;-76
2023/01/21 04:47:46;;;;;;;6.20;4.20;;;;;;;16.56;51.10;99934.72;5003248;28;20042;-76
2023/01/21 04:50:12;;;;;;;6.20;3.90;;;;;;;16.56;51.08;99948.72;5000611;28;20559;-75
2023/01/21 04:52:38;;;;;;;5.78;3.42;;;;;;;16.54;51.15;99947.94;4995403;28;20378;-76
2023/01/21 04:55:04;;;;;;;6.55;3.60;;;;;;;16.56;51.41;99946.09;4994747;28;20049;-77
2023/01/21 04:57:29;;;;;;;5.80;3.85;;;;;;;16.54;51.03;99942.66;4989013;28;20044;-76
2023/01/21 04:59:55;;;;;;;6.32;4.00;;;;;;;16.55;51.02;99944.38;4994441;28;20050;-75
2023/01/21 05:02:20;;;;;;;5.45;3.45;;;;;;;16.55;50.94;99939.09;4999574;28;20034;-75
2023/01/21 05:04:46;;;;;;;5.80;3.60;;;;;;;16.57;51.21;99932.00;4982485;28;20385;-75
2023/01/21 05:07:12;;;;;;;6.05;3.53;;;;;;;16.56;51.08;99925.00;4979632;28;20034;-75
2023/01/21 05:09:37;;;;;;;6.03;3.97;;;;;;;16.54;51.25;99921.59;4980138;28;20034;-75
2023/01/21 05:12:03;;;;;;;5.47;3.45;;;;;;;16.53;51.15;99919.88;4980118;28;20031;-75
2023/01/21 05:14:29;;;;;;;5.65;3.75;;;;;;;16.54;51.31;99913.69;4994513;28;20396;-75
2023/01/21 05:16:54;;;;;;;5.28;3.60;;;;;;;16.53;51.23;99919.88;4998094;28;20041;-75
2023/01/21 05:19:20;;;;;;;6.15;3.40;;;;;;;16.51;51.31;99911.13;4999050;28;20431;-75
2023/01/21 05:21:45;;;;;;;6.05;3.50;;;;;;;16.53;50.94;99913.72;4999061;28;20027;-75
2023/01/21 05:24:10;;;;;;;5.00;3.30;;;;;;;16.52;51.16;99912.88;4999337;28;20027;-75
2023/01/21 05:26:36;;;;;;;5.30;3.35;;;;;;;16.52;51.21;99918.16;4999510;28;20038;-75
2023/01/21 05:29:01;;;;;;;5.13;3.10;;;;;;;16.51;51.17;99911.13;4999136;28;20519;-75
2023/01/21 05:31:27;;;;;;;4.82;3.30;;;;;;;16.50;51.22;99922.59;4999500;28;20091;-75
2023/01/21 05:33:52;;;;;;;5.60;3.28;;;;;;;16.48;51.12;99927.91;4989854;28;20489;-75
2023/01/21 05:36:18;;;;;;;6.15;3.42;;;;;;;16.47;51.44;99918.28;4979401;28;20038;-75
2023/01/21 05:38:43;;;;;;;5.88;3.03;;;;;;;16.45;51.44;99921.88;4978481;28;20030;-75
2023/01/21 05:41:08;;;;;;;4.50;2.67;;;;;;;16.45;51.49;99919.25;4976735;28;20027;-74
2023/01/21 05:43:34;;;;;;;5.30;3.28;;;;;;;16.44;51.46;99926.31;4983250;28;20022;-75
2023/01/21 05:46:00;;;;;;;4.78;2.90;;;;;;;16.45;51.09;99927.16;4996103;28;20493;-76
2023/01/21 05:48:27;;;;;;;5.65;3.47;;;;;;;16.44;51.21;99935.97;4995959;28;20049;-75
2023/01/21 05:50:53;;;;;;;5.13;2.97;;;;;;;16.46;51.06;99949.97;4995614;28;20117;-75
2023/01/21 05:53:18;;;;;;;4.43;2.92;;;;;;;16.42;51.11;99949.19;4991559;28;20481;-75
2023/01/21 05:55:44;;;;;;;5.03;2.90;;;;;;;16.43;50.97;99955.34;4976524;28;20023;-75
2023/01/21 05:58:09;;;;;;;5.13;3.15;;;;;;;16.42;51.04;99943.09;4976353;28;20027;-75
2023/01/21 06:00:34;;;;;;;4.68;2.97;;;;;;;16.43;51.24;99936.91;4974773;28;20520;-75
2023/01/21 06:03:01;;;;;;;5.35;3.10;;;;;;;16.43;51.26;99940.41;4992632;28;20023;-75
2023/01/21 06:05:27;;;;;;;4.15;2.58;;;;;;;16.43;51.10;99944.78;4976137;28;20019;-75
2023/01/21 06:07:52;;;;;;;5.03;2.85;;;;;;;16.38;50.99;99943.16;4975123;28;20030;-75
2023/01/21 06:10:19;;;;;;;6.10;3.35;;;;;;;16.37;51.19;99952.00;4976514;28;20029;-75
2023/01/21 06:12:45;;;;;;;4.25;2.75;;;;;;;16.40;51.32;99943.13;4976776;28;20023;-75
2023/01/21 06:15:12;;;;;;;6.78;3.45;;;;;;;16.40;50.97;99939.63;4995774;28;20033;-75
2023/01/21 06:17:39;;;;;;;5.32;3.25;;;;;;;16.37;51.26;99957.25;4996265;28;20038;-75
2023/01/21 06:20:06;;;;;;;5.35;2.83;;;;;;;16.37;50.94;99967.78;4995063;28;20035;-76
2023/01/21 06:22:31;;;;;;;5.13;2.70;;;;;;;16.36;51.09;99981.88;4995399;28;20022;-75
2023/01/21 06:24:57;;;;;;;4.72;2.88;;;;;;;16.35;51.16;99969.63;4995203;28;20484;-75
2023/01/21 06:27:22;;;;;;;4.90;2.80;;;;;;;16.35;51.06;99967.00;4995362;28;20114;-75
2023/01/21 06:29:48;;;;;;;5.20;3.13;;;;;;;16.33;51.25;99966.16;4994111;28;20019;-75
2023/01/21 06:32:13;;;;;;;4.97;2.85;;;;;;;16.31;51.23;99967.13;4994005;28;20030;-75
2023/01/21 06:34:39;;;;;;;3.65;2.25;;;;;;;16.30;51.13;99961.03;4980364;28;20289;-75
2023/01/21 06:37:04;;;;;;;4.53;2.72;;;;;;;16.32;51.12;99968.88;4975727;28;20026;-75
2023/01/21 06:39:29;;;;;;;3.78;2.25;;;;;;;16.30;51.00;99971.56;4975635;28;20023;-75
2023/01/21 06:41:55;;;;;;;4.97;2.90;;;;;;;16.29;51.34;99964.56;4975699;28;20033;-75
2023/01/21 06:44:20;;;;;;;4.15;2.50;;;;;;;16.30;51.45;99958.38;4986106;28;20050;-75
2023/01/21 06:46:46;;;;;;;5.85;3.35;;;;;;;16.30;51.07;99965.41;4994962;28;20468;-75
2023/01/21 06:49:11;;;;;;;4.22;2.50;;;;;;;16.31;50.99;99968.00;4994422;28;20026;-75
2023/01/21 06:51:36;;;;;;;4.13;2.65;;;;;;;16.29;50.99;99964.56;4994335;28;20058;-75
2023/01/21 06:54:02;;;;;;;4.35;2.60;;;;;;;16.29;51.12;99959.31;4985362;28;20029;-75
2023/01/21 06:56:27;;;;;;;4.70;2.60;;;;;;;16.31;51.21;99956.59;4977811;28;20022;-75
2023/01/21 06:58:52;;;;;;;4.93;2.55;;;;;;;16.28;51.27;99968.13;4973583;28;20046;-75
2023/01/21 07:01:18;;;;;;;3.75;2.10;;;;;;;16.26;51.03;99953.28;4979606;28;20085;-75
2023/01/21 07:03:43;;;;;;;5.35;2.85;;;;;;;16.27;51.07;99961.09;4986261;28;20030;-75
2023/01/21 07:06:09;;;;;;;4.32;2.58;;;;;;;16.27;50.91;99955.00;4975276;28;20026;-75
2023/01/21 07:08:34;;;;;;;4.15;2.45;;;;;;;16.24;50.98;99955.94;4975173;28;20026;-75
2023/01/21 07:11:00;;;;;;;3.90;2.10;;;;;;;16.21;51.23;99946.38;4974931;28;20057;-75
2023/01/21 07:13:25;;;;;;;3.58;1.90;;;;;;;16.24;51.46;99950.69;4979144;28;20023;-75
2023/01/21 07:15:51;;;;;;;3.60;2.03;;;;;;;16.21;50.83;99945.50;4994437;28;20358;-75
2023/01/21 07:18:16;;;;;;;4.35;2.40;;;;;;;16.21;51.32;99956.03;4993906;28;20427;-75
2023/01/21 07:20:41;;;;;;;5.38;2.42;;;;;;;16.21;50.82;99940.25;4993133;28;20045;-75
2023/01/21 07:23:07;;;;;;;5.00;2.50;;;;;;;16.19;51.26;99944.72;4994613;28;20034;-75
2023/01/21 07:25:34;;;;;;;3.95;2.08;;;;;;;16.18;51.28;99951.72;4994232;28;20211;-75
2023/01/21 07:28:00;;;;;;;4.00;2.20;;;;;;;16.19;51.19;99947.34;4994295;28;20049;-75
2023/01/21 07:30:26;;;;;;;4.03;2.20;;;;;;;16.18;51.33;99948.25;4994156;28;20097;-75
2023/01/21 07:32:51;;;;;;;4.03;2.40;;;;;;;16.18;51.32;99935.94;4992436;28;20026;-75
2023/01/21 07:35:16;;;;;;;3.97;2.17;;;;;;;16.20;51.40;99938.53;4974039;28;20477;-75
2023/01/21 07:37:42;;;;;;;4.15;2.17;;;;;;;16.18;51.13;99937.72;4974420;28;20029;-75
2023/01/21 07:40:08;;;;;;;3.03;1.65;;;;;;;16.20;51.19;99938.53;4974435;28;20130;-75
2023/01/21 07:42:33;;;;;;;3.40;2.10;;;;;;;16.19;51.03;99928.91;4974580;28;20027;-75
2023/01/21 07:45:01;;;;;;;4.38;2.40;;;;;;;16.18;50.91;99929.84;4990596;28;20178;-75
2023/01/21 07:47:27;;;;;;;3.78;2.20;;;;;;;16.18;51.12;99929.84;4993568;28;20061;-76
2023/01/21 07:49:52;;;;;;;3.38;1.92;;;;;;;16.18;51.40;99925.41;4993669;28;20070;-75
2023/01/21 07:52:18;;;;;;;3.70;2.22;;;;;;;16.18;51.39;99921.94;4993999;28;20034;-75
2023/01/21 07:54:43;;;;;;;4.20;2.28;;;;;;;16.16;51.08;99919.34;4979732;28;20031;-75
2023/01/21 07:57:08;;;;;;;4.50;2.10;;;;;;;16.17;51.02;99925.47;4974412;28;20027;-75
2023/01/21 07:59:34;;;;;;;3.10;2.10;;;;;;;16.16;51.32;99926.38;4973961;28;20053;-74
2023/01/21 08:02:00;;;;;;;3.25;1.90;;;;;;;16.14;51.25;99938.72;4983009;28;20061;-75
2023/01/21 08:04:26;;;;;;;2.92;1.77;;;;;;;16.13;51.31;99929.13;4982177;28;20401;-75
2023/01/21 08:06:55;;;;;;;3.38;2.13;;;;;;;16.13;51.36;99932.59;4974376;28;20113;-75
2023/01/21 08:09:24;;;;;;;3.60;2.30;;;;;;;16.13;51.14;99927.31;4974574;28;20465;-75
2023/01/21 08:11:50;;;;;;;3.17;1.80;;;;;;;16.15;51.01;99935.19;4975646;28;20027;-76
2023/01/21 08:14:16;;;;;;;3.92;2.08;;;;;;;16.13;51.21;99939.66;4984009;28;20117;-75
2023/01/21 08:16:42;;;;;;;4.28;1.92;;;;;;;16.15;50.95;99940.44;4993129;28;20496;-75
2023/01/21 08:19:07;;;;;;;3.40;2.10;;;;;;;16.12;50.91;99938.78;4993243;28;20029;-75
2023/01/21 08:21:32;;;;;;;3.35;1.85;;;;;;;16.12;51.30;99940.56;4993314;28;20029;-75
2023/01/21 08:23:58;;;;;;;3.75;1.83;;;;;;;16.10;51.07;99944.13;4993460;28;20530;-75
2023/01/21 08:26:23;;;;;;;3.65;2.15;;;;;;;16.10;51.04;99954.66;4993256;28;20023;-75
2023/01/21 08:28:52;;;;;;;3.22;1.80;;;;;;;16.07;51.02;99953.84;4993382;28;20034;-75
2023/01/21 08:31:18;;;;;;;5.22;2.05;;;;;;;16.09;51.35;99958.16;4993205;28;20027;-75
2023/01/21 08:33:43;;;;;;;3.60;1.90;;;;;;;16.07;51.09;99962.63;4987788;28;20015;-75
2023/01/21 08:36:08;;;;;;;3.80;1.90;;;;;;;16.07;51.22;99965.25;4973947;28;20026;-74
2023/01/21 08:38:34;;;;;;;3.95;1.98;;;;;;;16.06;51.05;99974.06;4973902;28;20019;-75
2023/01/21 08:41:00;;;;;;;2.90;1.55;;;;;;;16.05;51.17;99964.47;4973788;28;20031;-75
2023/01/21 08:43:26;;;;;;;3.65;2.10;;;;;;;16.03;51.18;99971.53;4977820;28;20042;-75
2023/01/21 08:45:55;;;;;;;3.22;1.80;;;;;;;16.01;50.99;99960.19;4993312;28;20025;-75
2023/01/21 08:48:20;;;;;;;4.30;2.10;;;;;;;16.01;51.13;99968.09;4997137;28;20034;-76
2023/01/21 08:50:46;;;;;;;2.63;1.67;;;;;;;16.02;50.96;99972.44;4997074;28;20034;-77
2023/01/21 08:53:11;;;;;;;3.10;1.90;;;;;;;16.04;50.85;99975.88;4996132;28;20384;-76
2023/01/21 08:55:36;;;;;;;3.28;1.80;;;;;;;16.02;50.86;99977.69;4976984;28;20045;-76
2023/01/21 08:58:03;;;;;;;3.13;1.73;;;;;;;16.01;51.01;99981.25;4975199;28;20023;-76
2023/01/21 09:00:28;;;;;;;4.00;1.77;;;;;;;16.01;50.82;99976.00;4974252;28;20066;-75
2023/01/21 09:02:54;;;;;;;3.53;1.80;;;;;;;16.00;50.78;99979.53;4990949;28;20377;-75
2023/01/21 09:05:20;;;;;;;2.97;1.70;;;;;;;15.98;50.79;99991.88;4977554;28;20389;-75
2023/01/21 09:07:45;;;;;;;3.58;1.77;;;;;;;15.97;51.16;99990.16;4973864;28;20034;-75
2023/01/21 09:10:12;;;;;;;3.40;1.80;;;;;;;15.97;50.92;99988.41;4973583;28;20054;-75
2023/01/21 09:12:39;;;;;;;3.30;1.45;;;;;;;15.97;50.93;100000.69;4973773;28;20031;-75
2023/01/21 09:15:05;;;;;;;4.18;1.65;;;;;;;15.93;50.97;100009.59;4992544;28;20030;-75
2023/01/21 09:17:31;;;;;;;3.38;1.60;;;;;;;15.94;50.83;100006.06;4996562;28;20036;-75
2023/01/21 09:19:56;;;;;;;3.60;1.85;;;;;;;15.96;50.88;100005.09;4996828;28;20037;-75
2023/01/21 09:22:21;;;;;;;2.55;1.50;;;;;;;15.94;50.93;100006.06;4996931;28;20018;-75
2023/01/21 09:24:47;;;;;;;3.47;1.50;;;;;;;15.93;50.78;100004.34;4995212;28;20495;-75
2023/01/21 09:27:12;;;;;;;3.38;1.80;;;;;;;15.91;50.97;100006.09;4996498;28;20109;-75
2023/01/21 09:29:38;;;;;;;4.03;1.60;;;;;;;15.90;50.81;100005.25;4996295;28;20109;-75
2023/01/21 09:32:04;;;;;;;3.33;2.05;;;;;;;15.91;51.06;100006.09;4996375;28;20027;-75
2023/01/21 09:34:30;;;;;;;3.22;1.80;;;;;;;15.90;50.83;100009.66;4985666;28;20041;-75
2023/01/21 09:36:55;;;;;;;3.70;1.92;;;;;;;15.88;50.99;100011.47;4976893;28;20035;-75
2023/01/21 09:39:20;;;;;;;3.30;1.67;;;;;;;15.87;50.93;100004.50;4976968;28;20034;-75
2023/01/21 09:41:52;;;;;;;2.50;1.40;;;;;;;15.84;50.73;100001.03;4976664;28;20030;-75
2023/01/21 09:44:20;;;;;;;3.47;1.95;;;;;;;15.85;50.82;100001.91;4985057;28;20472;-75
2023/01/21 09:46:58;;;;;;;2.75;1.50;;;;;;;15.82;50.78;99997.59;4996082;28;20038;-76
2023/01/21 09:49:29;;;;;;;4.00;1.63;;;;;;;15.84;50.94;99990.50;4996121;28;20034;-76
2023/01/21 09:52:23;;;;;;;3.20;1.77;;;;;;;15.82;50.78;99987.06;4996054;28;20044;-76
2023/01/21 09:54:49;;;;;;;3.22;1.70;;;;;;;15.85;50.84;99986.13;4982789;28;20030;-75
2023/01/21 09:57:14;;;;;;;2.85;1.45;;;;;;;15.86;50.84;99986.97;4976138;28;20491;-75
2023/01/21 09:59:54;;;;;;;3.78;1.58;;;;;;;15.79;50.95;99981.88;4976407;28;20414;-76
2023/01/21 10:02:37;;;;;;;2.90;1.40;;;;;;;15.81;50.82;99990.63;4989162;28;20085;-75
2023/01/21 10:05:11;;;;;;;2.85;1.75;;;;;;;15.80;50.78;99998.53;4981213;28;20023;-75
2023/01/21 10:07:44;;;;;;;3.05;1.90;;;;;;;15.80;51.12;100003.81;4976070;28;20050;-75
2023/01/21 10:10:15;;;;;;;3.97;1.60;;;;;;;15.78;50.79;100001.22;4976302;28;20029;-75
2023/01/21 10:13:05;;;;;;;2.65;1.50;;;;;;;15.77;50.76;99999.50;4975947;28;20023;-75
2023/01/21 10:15:41;;;;;;;3.00;1.60;;;;;;;15.79;50.92;100002.94;4994413;28;20030;-75
2023/01/21 10:18:14;;;;;;;4.57;1.90;;;;;;;15.76;50.77;100003.03;4996830;28;20039;-75
2023/01/21 10:20:45;;;;;;;3.20;1.67;;;;;;;15.76;50.85;99992.53;4976203;28;20473;-75
2023/01/21 10:23:17;;;;;;;2.70;1.45;;;;;;;15.79;50.75;99991.56;4975963;28;20051;-75
2023/01/21 10:25:47;;;;;;;3.28;1.80;;;;;;;15.73;51.04;99992.59;4994446;28;20484;-75
2023/01/21 10:28:24;;;;;;;2.95;1.55;;;;;;;15.73;50.98;99992.59;4995015;28;20131;-75
2023/01/21 10:30:53;;;;;;;;;;;;;;;15.72;50.93;100001.41;4995701;28;20040;-75
2023/01/21 10:33:24;;;;;;;3.25;1.30;;;;;;;15.77;51.06;100003.88;4995214;28;19924;-75
2023/01/21 10:36:06;;;;;;;3.33;1.60;;;;;;;15.69;51.03;99996.25;4995127;28;20026;-75
2023/01/21 10:38:57;;;;;;;3.03;1.40;;;;;;;15.67;50.80;99987.53;4995128;28;20084;-74
2023/01/21 10:41:47;;;;;;;4.25;1.98;;;;;;;15.67;50.78;99987.53;4991784;28;20049;-76
2023/01/21 10:44:17;;;;;;;2.65;1.60;;;;;;;15.66;51.14;99983.19;4987617;28;20519;-79
2023/01/21 10:46:59;;;;;;;3.25;1.88;;;;;;;15.67;50.95;99982.25;4976960;28;20081;-79
2023/01/21 10:49:50;;;;;;;3.20;1.77;;;;;;;15.65;50.89;99978.81;4976004;28;20054;-80
2023/01/21 10:52:30;;;;;;;2.67;1.60;;;;;;;15.64;50.93;99971.84;4976163;28;20027;-80
2023/01/21 10:55:19;;;;;;;3.15;1.35;;;;;;;15.65;50.91;99974.41;4988400;28;20443;-79
2023/01/21 10:58:19;;;;;;;2.90;1.55;;;;;;;15.63;50.87;99956.94;4994830;28;20042;-79
2023/01/21 11:00:48;;;;;;;3.65;2.10;;;;;;;15.64;50.81;99962.16;4983973;28;20046;-79
2023/01/21 11:03:21;;;;;;;3.65;1.50;;;;;;;15.63;50.94;99963.09;4975411;28;20018;-79
2023/01/21 11:05:47;;;;;;;3.35;1.50;;;;;;;15.63;50.81;99959.56;4983483;28;20029;-80
2023/01/21 11:08:20;;;;;;;2.65;1.35;;;;;;;15.63;50.65;99959.56;4975263;28;20027;-80
2023/01/21 11:10:48;;;;;;;3.05;1.70;;;;;;;15.60;50.93;99951.78;4974939;28;20022;-80
2023/01/21 11:13:14;;;;;;;3.33;1.88;;;;;;;15.62;50.91;99953.47;4975303;28;20027;-79
2023/01/21 11:15:45;;;;;;;3.17;1.67;;;;;;;15.62;50.76;99947.34;4993604;28;20045;-80
2023/01/21 11:18:27;;;;;;;3.60;1.70;;;;;;;15.59;50.95;99947.44;4994510;28;20476;-80
2023/01/21 11:20:58;;;;;;;4.05;1.90;;;;;;;15.59;50.98;99932.50;4975233;28;20038;-79
2023/01/21 11:23:29;;;;;;;3.92;1.63;;;;;;;15.61;50.95;99935.09;4975870;28;20110;-79
2023/01/21 11:26:04;;;;;;;3.25;1.60;;;;;;;15.56;51.19;99922.94;4994487;28;20480;-80
2023/01/21 11:28:29;;;;;;;2.83;1.60;;;;;;;15.55;51.08;99926.47;4994409;28;20022;-80
2023/01/21 11:31:25;;;;;;;3.25;1.60;;;;;;;15.53;50.83;99920.41;4994702;28;20022;-79
2023/01/21 11:33:52;;;;;;;3.70;1.58;;;;;;;15.59;50.88;99926.41;4983720;28;20039;-80
2023/01/21 11:36:20;;;;;;;3.08;1.65;;;;;;;15.54;50.86;99908.13;4974821;28;20030;-79
2023/01/21 11:39:08;;;;;;;3.08;1.65;;;;;;;15.56;50.94;99919.47;4974516;28;20102;-79
2023/01/21 11:41:35;;;;;;;3.45;1.83;;;;;;;15.53;50.85;99909.91;4974569;28;20106;-80
2023/01/21 11:44:17;;;;;;;3.28;1.75;;;;;;;15.52;51.09;99916.06;4979105;28;20029;-81
2023/01/21 11:46:43;;;;;;;3.97;1.83;;;;;;;15.54;51.04;99908.13;4993864;28;20026;-79